< < Back
Terminal Aerodrome Forecast


Current Version              Previous Versions:   1  2  3  4  5  6  7  8  9  

Terminal Aerodrome Forecast

354
FTUS42 KJAX 261853 AAA
TAFSSI
TAF AMD
KSSI 261853Z 2619/2718 27012KT P6SM SCT250
     FM270000 23007KT P6SM SCT250
     FM270800 30005KT P6SM BKN250
     FM271400 01008KT P6SM SCT040 BKN250=

Latest METAR

906
SAUS70 KWBC 270100 RRM
MTRSSI
METAR KSSI 270053Z AUTO 26005KT 10SM CLR 27/15 A2967 RMK AO2 SLP046
T02720150


USA.gov is the U.S. government's official web portal to all federal, state and local government web resources and services.